Terminal Aerodrome Forecast
Issued by NWS Charleston, SC

Home | Current Version | Previous Version | Text Only | Print | Product List | Glossary On
Versions: 1 2 3 4 5 6 7 8 9 10 11 12 13 14 15 16 17 18 19
861
FTUS42 KCHS 272320
TAFSAV
TAF
KSAV 272320Z 2800/2824 18011KT P6SM BKN250
     FM280400 19006KT P6SM FEW060 SCT250
      TEMPO 2809/2813 BKN015
     FM281600 17015G20KT P6SM SCT050=

USA.gov is the U.S. government's official web portal to all federal, state and local government web resources and services.